Time;durP1;ratioP1;P1;durP2;ratioP2;P2;SDS_P1;SDS_P2;PMS_P1;PMS_P2;Temp;Humidity;BMP_temperature;BMP_pressure;BME280_temperature;BME280_humidity;BME280_pressure;Samples;Min_cycle;Max_cycle;Signal;HPM_P1;HPM_P2
2022/01/03 05:00:17;;;;;;;0.10;0.10;;;8.80;99.90;;;;;;5983707;23;21413;31
2022/01/03 05:02:44;;;;;;;0.10;0.10;;;8.80;99.90;;;;;;4912691;29;20226;-66
2022/01/03 05:05:11;;;;;;;0.10;0.10;;;8.80;99.90;;;;;;4915927;29;21004;-66
2022/01/03 05:07:38;;;;;;;0.10;0.10;;;8.80;99.90;;;;;;4916417;29;20238;-66
2022/01/03 05:10:06;;;;;;;0.10;0.10;;;8.80;99.90;;;;;;4915415;29;20198;-67
2022/01/03 05:12:33;;;;;;;0.10;0.10;;;8.80;99.90;;;;;;4898679;29;20232;-67
2022/01/03 05:14:59;;;;;;;0.10;0.10;;;8.90;99.90;;;;;;4898040;29;20294;-66
2022/01/03 05:17:29;;;;;;;0.10;0.10;;;8.90;99.90;;;;;;4898710;29;20271;-65
2022/01/03 05:19:56;;;;;;;0.10;0.10;;;8.90;99.90;;;;;;4897065;29;20212;-66
2022/01/03 05:22:22;;;;;;;0.10;0.10;;;8.90;99.90;;;;;;4897281;29;20231;-65
2022/01/03 05:24:49;;;;;;;0.10;0.10;;;8.90;99.90;;;;;;4898219;29;20302;-67
2022/01/03 05:27:16;;;;;;;0.10;0.10;;;8.90;99.90;;;;;;4898088;29;20214;-67
2022/01/03 05:29:42;;;;;;;0.10;0.10;;;8.90;99.90;;;;;;4897983;29;20562;-67
2022/01/03 05:32:09;;;;;;;0.10;0.10;;;8.90;99.90;;;;;;4895620;29;20708;-68
2022/01/03 05:34:37;;;;;;;0.10;0.10;;;8.90;99.90;;;;;;4898304;29;20656;-67
2022/01/03 05:37:04;;;;;;;0.10;0.10;;;8.90;99.90;;;;;;4896980;29;20271;-68
2022/01/03 05:39:31;;;;;;;0.10;0.10;;;9.00;99.90;;;;;;4898072;29;20258;-67
2022/01/03 05:41:57;;;;;;;0.10;0.10;;;8.90;99.90;;;;;;4897831;29;20235;-67
2022/01/03 05:44:25;;;;;;;0.10;0.10;;;9.00;99.90;;;;;;4897859;29;20211;-67
2022/01/03 05:46:52;;;;;;;0.10;0.10;;;9.00;99.90;;;;;;4893372;29;20207;-67
2022/01/03 05:49:18;;;;;;;0.10;0.10;;;9.00;99.90;;;;;;4897731;29;20259;-66
2022/01/03 05:51:46;;;;;;;0.10;0.10;;;9.00;99.90;;;;;;4896163;29;20641;-67
2022/01/03 05:54:13;;;;;;;0.10;0.10;;;8.90;99.90;;;;;;4897529;29;20203;-66
2022/01/03 05:56:40;;;;;;;0.10;0.10;;;9.00;99.90;;;;;;4897697;29;20234;-66
2022/01/03 05:59:07;;;;;;;0.20;0.20;;;9.00;99.90;;;;;;4891882;29;20212;-65
2022/01/03 06:01:35;;;;;;;0.10;0.10;;;9.00;99.90;;;;;;4877827;29;20734;-66
2022/01/03 06:04:12;;;;;;;0.10;0.10;;;9.00;99.90;;;;;;4897297;29;20210;-67
2022/01/03 06:06:55;;;;;;;0.10;0.10;;;9.00;99.90;;;;;;4896295;29;20298;-67
2022/01/03 06:09:24;;;;;;;0.10;0.10;;;9.00;99.90;;;;;;4887593;29;20569;-67
2022/01/03 06:11:51;;;;;;;0.10;0.10;;;9.00;99.90;;;;;;4896708;29;20231;-67
2022/01/03 06:14:19;;;;;;;0.10;0.10;;;9.00;99.90;;;;;;4897117;29;20753;-67
2022/01/03 06:16:47;;;;;;;0.10;0.10;;;9.00;99.90;;;;;;4896279;29;20230;-68
2022/01/03 06:19:14;;;;;;;0.10;0.10;;;9.00;99.90;;;;;;4893912;29;20663;-67
2022/01/03 06:21:41;;;;;;;0.10;0.10;;;9.00;99.90;;;;;;4895579;29;20231;-67
2022/01/03 06:24:09;;;;;;;0.10;0.10;;;9.00;99.90;;;;;;4897169;29;20211;-67
2022/01/03 06:26:39;;;;;;;0.10;0.10;;;9.00;99.90;;;;;;4896690;29;20278;-67
2022/01/03 06:29:05;;;;;;;0.10;0.10;;;9.00;99.90;;;;;;4896716;29;20673;-67
2022/01/03 06:31:32;;;;;;;0.10;0.10;;;9.00;99.90;;;;;;4891065;29;20220;-67
2022/01/03 06:33:59;;;;;;;1.17;1.17;;;9.00;99.90;;;;;;4878318;29;20211;-67
2022/01/03 06:36:26;;;;;;;0.10;0.10;;;8.90;99.90;;;;;;4892074;29;20664;-67
2022/01/03 06:38:52;;;;;;;0.10;0.10;;;8.90;99.90;;;;;;4897035;29;20286;-66
2022/01/03 06:41:19;;;;;;;0.20;0.20;;;8.90;99.90;;;;;;4896297;29;20331;-66
2022/01/03 06:43:48;;;;;;;0.10;0.10;;;8.90;99.90;;;;;;4896709;29;20215;-66
2022/01/03 06:46:14;;;;;;;0.10;0.10;;;8.90;99.90;;;;;;4896347;29;20320;-66
2022/01/03 06:48:43;;;;;;;0.10;0.10;;;8.90;99.90;;;;;;4895849;29;20242;-67
2022/01/03 06:51:10;;;;;;;0.10;0.10;;;8.90;99.90;;;;;;4895189;29;20222;-66
2022/01/03 06:53:37;;;;;;;0.10;0.10;;;8.80;99.90;;;;;;4896685;29;20632;-67
2022/01/03 06:56:04;;;;;;;0.10;0.10;;;8.80;99.90;;;;;;4896080;29;20297;-67
2022/01/03 06:58:31;;;;;;;0.10;0.10;;;8.80;99.90;;;;;;4890980;29;20294;-67
2022/01/03 07:00:59;;;;;;;0.10;0.10;;;8.80;99.90;;;;;;4894794;29;20235;-65
2022/01/03 07:03:26;;;;;;;0.10;0.10;;;8.80;99.90;;;;;;4894125;29;20255;-66
2022/01/03 07:05:53;;;;;;;0.10;0.10;;;8.80;99.90;;;;;;4883468;29;20648;-65
2022/01/03 07:08:21;;;;;;;0.10;0.10;;;8.80;99.90;;;;;;4895843;29;20215;-66
2022/01/03 07:10:48;;;;;;;0.10;0.10;;;8.80;99.90;;;;;;4895492;29;20224;-66
2022/01/03 07:13:14;;;;;;;0.10;0.10;;;8.80;99.90;;;;;;4896456;29;20223;-66
2022/01/03 07:21:19;;;;;;;0.10;0.10;;;8.70;99.90;;;;;;4865681;29;20254;-65
2022/01/03 07:23:46;;;;;;;0.10;0.10;;;8.70;99.90;;;;;;4896281;29;20222;-66
2022/01/03 07:26:13;;;;;;;0.10;0.10;;;8.70;99.90;;;;;;4895106;29;20578;-66
2022/01/03 07:28:40;;;;;;;0.10;0.10;;;8.80;99.90;;;;;;4896022;29;20207;-66
2022/01/03 07:31:06;;;;;;;0.10;0.10;;;8.80;99.90;;;;;;4888118;29;20610;-67
2022/01/03 07:33:34;;;;;;;0.10;0.10;;;8.80;99.90;;;;;;4896046;29;20702;-67
2022/01/03 07:36:01;;;;;;;0.10;0.10;;;8.80;99.90;;;;;;4894524;29;20597;-66
2022/01/03 07:38:28;;;;;;;0.10;0.10;;;8.80;99.90;;;;;;4895716;29;20808;-66
2022/01/03 07:40:55;;;;;;;0.10;0.10;;;8.80;99.90;;;;;;4895168;29;20235;-66
2022/01/03 07:43:22;;;;;;;0.10;0.10;;;8.80;99.90;;;;;;4894786;29;20230;-65
2022/01/03 07:45:48;;;;;;;0.10;0.10;;;8.80;99.90;;;;;;4895229;29;20255;-66
2022/01/03 07:48:15;;;;;;;0.10;0.10;;;8.80;99.90;;;;;;4893870;29;20614;-66
2022/01/03 07:50:43;;;;;;;0.10;0.10;;;8.80;99.90;;;;;;4894913;29;20239;-65
2022/01/03 07:53:10;;;;;;;0.10;0.10;;;8.80;99.90;;;;;;4891368;29;20530;-65
2022/01/03 07:55:37;;;;;;;0.10;0.10;;;8.80;99.90;;;;;;4895074;29;20203;-66
2022/01/03 07:58:04;;;;;;;0.10;0.10;;;8.80;99.90;;;;;;4886808;29;20583;-65
2022/01/03 08:00:30;;;;;;;0.10;0.10;;;8.80;99.90;;;;;;4894832;29;20298;-64
2022/01/03 08:02:57;;;;;;;0.10;0.10;;;8.90;99.90;;;;;;4894756;29;20238;-66
2022/01/03 08:05:24;;;;;;;0.10;0.10;;;8.80;99.90;;;;;;4893706;29;20282;-65
2022/01/03 08:07:52;;;;;;;0.10;0.10;;;8.80;99.90;;;;;;4889363;29;20269;-66
2022/01/03 08:10:20;;;;;;;0.10;0.10;;;8.80;99.90;;;;;;4890359;29;20744;-65
2022/01/03 08:12:47;;;;;;;0.10;0.10;;;8.80;99.90;;;;;;4892147;29;20203;-65
2022/01/03 08:15:14;;;;;;;0.10;0.10;;;8.90;99.90;;;;;;4895164;29;20211;-65
2022/01/03 08:17:44;;;;;;;0.10;0.10;;;8.80;99.90;;;;;;4894783;29;20220;-65
2022/01/03 08:20:11;;;;;;;0.10;0.10;;;8.80;99.90;;;;;;4894728;29;20692;-65
2022/01/03 08:22:38;;;;;;;0.10;0.10;;;8.80;99.90;;;;;;4893580;29;20302;-65
2022/01/03 08:25:07;;;;;;;0.10;0.10;;;8.80;99.90;;;;;;4893658;29;20235;-65
2022/01/03 08:27:34;;;;;;;0.70;0.70;;;8.80;99.90;;;;;;4894523;29;20680;-66
2022/01/03 08:30:00;;;;;;;0.10;0.10;;;8.80;99.90;;;;;;4894963;29;20231;-65
2022/01/03 08:32:27;;;;;;;0.10;0.10;;;8.80;99.90;;;;;;4881158;29;20254;-65
2022/01/03 08:34:54;;;;;;;0.10;0.10;;;8.80;99.90;;;;;;4890148;29;20211;-65
2022/01/03 08:37:21;;;;;;;0.10;0.10;;;8.80;99.90;;;;;;4879069;29;20303;-65
2022/01/03 08:39:48;;;;;;;0.10;0.10;;;8.90;99.90;;;;;;4884167;29;20909;-66
2022/01/03 08:42:18;;;;;;;0.10;0.10;;;8.90;99.90;;;;;;4886452;29;20227;-66
2022/01/03 08:44:45;;;;;;;0.10;0.10;;;8.90;99.90;;;;;;4894073;29;20298;-66
2022/01/03 08:47:11;;;;;;;0.10;0.10;;;8.90;99.90;;;;;;4893806;29;20286;-66
2022/01/03 08:49:38;;;;;;;0.10;0.10;;;8.90;99.90;;;;;;4879800;29;20215;-65
2022/01/03 08:52:05;;;;;;;0.10;0.10;;;8.90;99.90;;;;;;4882827;29;20290;-65
2022/01/03 08:54:32;;;;;;;0.10;0.10;;;8.90;99.90;;;;;;4898485;29;20302;-66
2022/01/03 08:56:59;;;;;;;0.10;0.10;;;8.90;99.90;;;;;;4895768;29;20661;-66
2022/01/03 08:59:27;;;;;;;0.10;0.10;;;8.90;99.90;;;;;;4889537;29;20216;-66
2022/01/03 09:01:53;;;;;;;0.10;0.10;;;8.90;99.90;;;;;;4896295;29;20235;-66
2022/01/03 09:04:20;;;;;;;0.10;0.10;;;9.00;99.90;;;;;;4897847;29;20656;-66
2022/01/03 09:06:48;;;;;;;0.10;0.10;;;9.00;99.90;;;;;;4896465;29;20215;-65
2022/01/03 09:09:15;;;;;;;0.10;0.10;;;9.00;99.90;;;;;;4897052;29;20207;-66
2022/01/03 09:11:42;;;;;;;0.10;0.10;;;9.00;99.90;;;;;;4897238;29;20595;-65
2022/01/03 09:14:08;;;;;;;0.10;0.10;;;9.00;99.90;;;;;;4896856;29;20259;-66
2022/01/03 09:16:36;;;;;;;0.10;0.10;;;9.00;99.90;;;;;;4886907;29;20263;-66
2022/01/03 09:19:04;;;;;;;0.10;0.10;;;9.00;99.90;;;;;;4879447;29;20681;-65
2022/01/03 09:21:30;;;;;;;0.10;0.10;;;9.00;99.90;;;;;;4890967;29;20224;-66
2022/01/03 09:24:17;;;;;;;0.10;0.10;;;9.00;99.90;;;;;;4897032;29;20275;-67
2022/01/03 09:29:28;;;;;;;0.10;0.10;;;9.10;99.90;;;;;;4879101;29;20206;-67
2022/01/03 09:31:56;;;;;;;0.10;0.10;;;9.10;99.90;;;;;;4889340;29;20705;-66
2022/01/03 09:34:23;;;;;;;0.10;0.10;;;9.10;99.90;;;;;;4897259;29;20282;-67
2022/01/03 09:36:50;;;;;;;1.15;1.15;;;9.10;99.90;;;;;;4896122;29;20211;-67
2022/01/03 09:39:17;;;;;;;0.10;0.10;;;9.10;99.90;;;;;;4897856;29;20264;-66
2022/01/03 09:41:52;;;;;;;0.10;0.10;;;9.20;99.90;;;;;;4896779;29;20441;-67
2022/01/03 09:44:22;;;;;;;5.78;1.75;;;9.20;99.90;;;;;;4886414;29;20744;-68
2022/01/03 09:46:50;;;;;;;0.10;0.10;;;9.30;99.90;;;;;;4896524;29;20210;-67
2022/01/03 09:49:19;;;;;;;0.10;0.10;;;9.30;99.90;;;;;;4896771;29;20270;-66
2022/01/03 09:51:47;;;;;;;0.10;0.10;;;9.30;99.90;;;;;;4896280;29;20255;-66
2022/01/03 09:54:15;;;;;;;0.10;0.10;;;9.40;99.90;;;;;;4896691;29;20219;-66
2022/01/03 09:56:43;;;;;;;0.10;0.10;;;9.40;99.90;;;;;;4884422;29;20231;-67
2022/01/03 09:59:10;;;;;;;0.10;0.10;;;9.50;99.90;;;;;;4897825;29;20634;-67
2022/01/03 10:01:37;;;;;;;0.10;0.10;;;9.50;99.90;;;;;;4895171;29;20235;-66
2022/01/03 10:04:05;;;;;;;0.10;0.10;;;9.50;99.90;;;;;;4882952;29;20227;-67
2022/01/03 10:06:33;;;;;;;0.10;0.10;;;9.50;99.90;;;;;;4891653;29;20204;-67
2022/01/03 10:09:00;;;;;;;0.10;0.10;;;9.50;99.90;;;;;;4897497;29;20278;-67
2022/01/03 10:11:27;;;;;;;0.10;0.10;;;9.50;99.90;;;;;;4895589;29;20749;-67
2022/01/03 10:13:54;;;;;;;0.10;0.10;;;9.50;99.90;;;;;;4895551;29;20740;-68
2022/01/03 10:16:21;;;;;;;0.10;0.10;;;9.50;99.90;;;;;;4896862;29;20255;-67
2022/01/03 10:18:48;;;;;;;0.10;0.10;;;9.50;99.90;;;;;;4891136;29;20214;-67
2022/01/03 10:21:36;;;;;;;0.10;0.10;;;9.50;99.90;;;;;;4890362;29;20229;-67
2022/01/03 10:24:04;;;;;;;0.10;0.10;;;9.40;99.90;;;;;;4886270;29;20229;-67
2022/01/03 10:26:30;;;;;;;0.10;0.10;;;9.50;99.90;;;;;;4909951;29;20219;-67
2022/01/03 10:29:15;;;;;;;0.10;0.10;;;9.50;99.90;;;;;;4880497;29;20208;-66
2022/01/03 10:31:43;;;;;;;0.10;0.10;;;9.60;99.90;;;;;;4885457;29;20234;-68
2022/01/03 10:34:12;;;;;;;0.10;0.10;;;9.70;99.90;;;;;;4897052;29;20211;-66
2022/01/03 10:36:42;;;;;;;0.10;0.10;;;9.70;99.90;;;;;;4895242;29;20203;-67
2022/01/03 10:39:14;;;;;;;0.10;0.10;;;9.80;99.90;;;;;;4896679;29;20217;-67
2022/01/03 10:41:41;;;;;;;0.20;0.20;;;9.90;99.90;;;;;;4889180;29;20232;-67
2022/01/03 10:44:09;;;;;;;0.10;0.10;;;9.90;99.90;;;;;;4893964;29;20600;-67
2022/01/03 10:46:37;;;;;;;0.10;0.10;;;10.00;99.90;;;;;;4886057;29;20216;-66
2022/01/03 10:49:09;;;;;;;0.10;0.10;;;10.00;99.90;;;;;;4891741;29;20644;-66
2022/01/03 10:51:36;;;;;;;0.10;0.10;;;10.10;99.90;;;;;;4885204;29;20250;-66
2022/01/03 10:54:08;;;;;;;0.10;0.10;;;10.00;99.90;;;;;;4893465;29;20211;-66
2022/01/03 10:56:38;;;;;;;0.10;0.10;;;10.00;99.90;;;;;;4879702;29;20203;-66
2022/01/03 10:59:21;;;;;;;4.22;3.90;;;10.00;99.90;;;;;;4885928;29;20717;-67
2022/01/03 11:01:50;;;;;;;0.10;0.10;;;10.10;99.90;;;;;;4889527;29;20269;-67
2022/01/03 11:04:27;;;;;;;0.10;0.10;;;10.00;99.90;;;;;;4890221;29;20326;-66
2022/01/03 11:10:43;;;;;;;0.10;0.10;;;10.10;99.90;;;;;;4894614;29;20207;-66
2022/01/03 11:13:10;;;;;;;0.10;0.10;;;10.20;99.90;;;;;;4890515;29;20210;-66
2022/01/03 11:15:38;;;;;;;0.10;0.10;;;10.20;99.90;;;;;;4893907;29;20279;-66
2022/01/03 11:18:16;;;;;;;13.75;4.88;;;10.20;99.90;;;;;;4894417;29;20207;-66
2022/01/03 11:20:44;;;;;;;0.10;0.10;;;10.20;99.90;;;;;;4894103;29;20238;-67
2022/01/03 11:23:19;;;;;;;0.10;0.10;;;10.30;99.90;;;;;;4893754;29;20255;-67
2022/01/03 11:25:47;;;;;;;0.10;0.10;;;10.30;99.90;;;;;;4894022;29;20226;-67
2022/01/03 11:28:14;;;;;;;0.10;0.10;;;10.30;99.90;;;;;;4893547;29;20210;-67
2022/01/03 11:30:43;;;;;;;0.10;0.10;;;10.30;99.90;;;;;;4881499;29;20227;-67
2022/01/03 11:33:10;;;;;;;0.10;0.10;;;10.30;99.90;;;;;;4883914;29;20226;-66
2022/01/03 11:35:39;;;;;;;0.10;0.10;;;10.40;99.90;;;;;;4892166;29;20620;-67
2022/01/03 11:38:07;;;;;;;0.10;0.10;;;10.40;99.90;;;;;;4890227;29;20202;-67
2022/01/03 11:40:35;;;;;;;0.10;0.10;;;10.40;99.90;;;;;;4893591;29;20231;-67
2022/01/03 11:43:03;;;;;;;0.10;0.10;;;10.40;99.90;;;;;;4889295;29;20234;-66
2022/01/03 11:45:31;;;;;;;0.10;0.10;;;10.40;99.90;;;;;;4894536;29;20286;-67
2022/01/03 11:47:58;;;;;;;0.10;0.10;;;10.50;99.90;;;;;;4885156;29;20304;-66
2022/01/03 11:50:25;;;;;;;0.10;0.10;;;10.50;99.90;;;;;;4895002;29;20682;-66
2022/01/03 11:52:52;;;;;;;0.10;0.10;;;10.50;99.90;;;;;;4891200;29;20334;-66
2022/01/03 11:55:22;;;;;;;0.68;0.68;;;10.60;99.90;;;;;;4895411;29;20306;-66
2022/01/03 11:58:09;;;;;;;0.10;0.10;;;10.60;99.90;;;;;;4888997;29;20236;-66
2022/01/03 12:03:47;;;;;;;0.10;0.10;;;10.70;99.90;;;;;;4883296;29;20766;-67
2022/01/03 12:06:28;;;;;;;0.10;0.10;;;10.70;99.90;;;;;;4887375;29;20214;-67
2022/01/03 12:08:57;;;;;;;1.88;1.88;;;10.70;99.90;;;;;;4876447;29;20223;-68
2022/01/03 12:11:26;;;;;;;0.10;0.10;;;10.60;99.90;;;;;;4884291;29;20238;-67
2022/01/03 12:13:55;;;;;;;0.10;0.10;;;10.60;99.90;;;;;;4889025;29;20227;-68
2022/01/03 12:16:39;;;;;;;0.10;0.10;;;10.60;99.90;;;;;;4887491;29;20207;-67
2022/01/03 12:19:07;;;;;;;0.10;0.10;;;10.50;99.90;;;;;;4893435;29;20669;-67
2022/01/03 12:21:52;;;;;;;0.10;0.10;;;10.60;99.90;;;;;;4896789;29;20235;-68
2022/01/03 12:24:41;;;;;;;0.10;0.10;;;10.60;99.90;;;;;;4899156;29;20227;-67
2022/01/03 12:27:29;;;;;;;0.10;0.10;;;10.60;99.90;;;;;;4886368;29;20214;-68
2022/01/03 12:30:23;;;;;;;0.10;0.10;;;10.60;99.90;;;;;;4891812;29;20212;-68
2022/01/03 12:33:22;;;;;;;0.10;0.10;;;10.70;99.90;;;;;;4879087;29;20207;-68
2022/01/03 12:35:50;;;;;;;0.10;0.10;;;10.70;99.90;;;;;;4891619;29;20569;-68
2022/01/03 12:38:23;;;;;;;2.38;0.43;;;10.70;99.90;;;;;;4894898;29;20226;-67
2022/01/03 12:41:03;;;;;;;11.50;4.00;;;10.60;99.90;;;;;;4897651;29;20226;-68
2022/01/03 12:43:43;;;;;;;10.23;3.78;;;10.60;99.90;;;;;;4898799;29;20227;-68
2022/01/03 12:46:24;;;;;;;3.80;3.22;;;10.50;99.90;;;;;;4895239;29;20208;-69
2022/01/03 12:48:55;;;;;;;8.02;3.30;;;10.40;99.90;;;;;;4895234;29;20215;-69
2022/01/03 12:51:22;;;;;;;9.15;3.53;;;10.40;99.90;;;;;;4897621;29;20303;-69
2022/01/03 12:53:53;;;;;;;5.50;3.10;;;10.40;99.90;;;;;;4898170;29;20571;-69
2022/01/03 12:56:31;;;;;;;4.97;3.03;;;10.40;99.90;;;;;;4895485;29;20211;-68
2022/01/03 12:58:59;;;;;;;8.75;2.83;;;10.40;99.90;;;;;;4888854;29;20215;-67
2022/01/03 13:01:30;;;;;;;7.75;3.83;;;10.40;99.90;;;;;;4896819;29;20243;-67
2022/01/03 13:04:26;;;;;;;9.38;3.78;;;10.50;99.90;;;;;;4893364;29;20347;-67
2022/01/03 13:07:02;;;;;;;5.38;4.00;;;10.60;99.90;;;;;;4872308;29;20243;-68
2022/01/03 13:09:29;;;;;;;7.32;2.92;;;10.80;99.90;;;;;;4889165;29;20600;-68
2022/01/03 13:11:59;;;;;;;6.90;2.55;;;10.90;99.90;;;;;;4897518;29;20230;-67
2022/01/03 13:14:28;;;;;;;7.05;3.70;;;11.00;99.90;;;;;;4897702;29;20290;-68
2022/01/03 13:16:56;;;;;;;5.18;3.03;;;11.10;99.90;;;;;;4895812;29;20222;-68
2022/01/03 13:19:26;;;;;;;7.13;2.95;;;11.20;99.90;;;;;;4890152;29;20212;-68
2022/01/03 13:21:57;;;;;;;7.75;3.83;;;11.30;99.90;;;;;;4897057;29;20223;-67
2022/01/03 13:24:29;;;;;;;6.47;3.03;;;11.40;99.90;;;;;;4898006;29;20592;-67
2022/01/03 13:27:01;;;;;;;4.32;3.40;;;11.40;99.90;;;;;;4898297;29;20543;-69
2022/01/03 13:29:30;;;;;;;8.23;4.22;;;11.40;99.90;;;;;;4881496;29;20678;-66
2022/01/03 13:31:58;;;;;;;8.68;3.13;;;11.40;99.90;;;;;;4879155;29;20228;-67
2022/01/03 13:34:28;;;;;;;5.18;2.90;;;11.30;99.90;;;;;;4895835;29;20203;-67
2022/01/03 13:36:59;;;;;;;7.50;3.20;;;11.30;99.90;;;;;;4897903;29;20298;-67
2022/01/03 13:39:27;;;;;;;12.88;3.92;;;11.10;99.90;;;;;;4898847;29;20199;-68
2022/01/03 13:41:56;;;;;;;9.57;4.10;;;10.90;99.90;;;;;;4897833;29;20235;-68
2022/01/03 13:44:40;;;;;;;12.25;3.65;;;10.80;99.90;;;;;;4898492;29;20231;-68
2022/01/03 13:49:54;;;;;;;6.55;3.13;;;10.50;99.90;;;;;;4897134;29;20770;-68
2022/01/03 13:52:30;;;;;;;12.20;4.03;;;10.40;99.90;;;;;;4897115;29;20281;-67
2022/01/03 13:55:02;;;;;;;9.95;3.35;;;10.30;99.90;;;;;;4897870;29;20210;-67
2022/01/03 13:57:29;;;;;;;11.25;4.55;;;10.30;99.90;;;;;;4897318;29;20263;-67
2022/01/03 13:59:56;;;;;;;5.43;4.30;;;10.30;99.90;;;;;;4890523;29;20207;-67
2022/01/03 14:02:23;;;;;;;9.00;3.05;;;10.20;99.90;;;;;;4896925;29;20325;-67
2022/01/03 14:04:51;;;;;;;7.70;3.67;;;10.20;99.90;;;;;;4897572;29;20341;-67
2022/01/03 14:07:18;;;;;;;9.90;3.53;;;10.20;99.90;;;;;;4896563;29;20290;-67
2022/01/03 14:09:54;;;;;;;4.20;2.83;;;10.10;99.90;;;;;;4896862;29;20211;-67
2022/01/03 14:12:21;;;;;;;4.80;2.53;;;10.00;99.90;;;;;;4896965;29;20611;-67
2022/01/03 14:14:52;;;;;;;7.65;3.58;;;10.00;99.90;;;;;;4896805;29;20207;-68
2022/01/03 14:17:18;;;;;;;8.82;3.40;;;10.00;99.90;;;;;;4889205;29;20256;-67
2022/01/03 14:19:45;;;;;;;14.85;4.32;;;9.90;99.90;;;;;;4878423;29;20219;-68
2022/01/03 14:22:14;;;;;;;11.40;4.50;;;9.90;99.90;;;;;;4877500;29;20620;-68
2022/01/03 14:24:59;;;;;;;9.50;3.38;;;9.90;99.90;;;;;;4878456;29;20239;-67
2022/01/03 14:27:33;;;;;;;13.32;3.58;;;9.80;99.90;;;;;;4877976;29;20272;-68
2022/01/03 14:30:14;;;;;;;11.45;3.65;;;9.80;99.90;;;;;;4889047;29;20692;-67
2022/01/03 14:32:42;;;;;;;10.93;3.72;;;9.70;99.90;;;;;;4894062;29;20206;-67
2022/01/03 14:35:09;;;;;;;5.80;4.97;;;9.70;99.90;;;;;;4885130;29;20204;-67
2022/01/03 14:37:36;;;;;;;9.65;3.42;;;9.60;99.90;;;;;;4886881;29;20216;-67
2022/01/03 14:40:06;;;;;;;10.32;4.35;;;9.60;99.90;;;;;;4879542;29;20205;-66
2022/01/03 14:42:35;;;;;;;8.00;3.83;;;9.60;99.90;;;;;;4894620;29;20385;-66
2022/01/03 14:45:12;;;;;;;17.92;6.35;;;9.50;99.90;;;;;;4895468;29;20283;-67
2022/01/03 14:47:39;;;;;;;12.77;4.20;;;9.50;99.90;;;;;;4889554;29;20618;-66
2022/01/03 14:50:08;;;;;;;7.22;3.88;;;9.50;99.90;;;;;;4895126;29;20215;-66
2022/01/03 14:52:37;;;;;;;7.45;3.70;;;9.40;99.90;;;;;;4894871;29;20235;-66
2022/01/03 14:55:08;;;;;;;6.72;3.40;;;9.40;99.90;;;;;;4895701;29;20208;-66
2022/01/03 14:57:42;;;;;;;10.98;4.03;;;9.40;99.90;;;;;;4896111;29;20460;-66
2022/01/03 15:00:10;;;;;;;7.45;3.83;;;9.40;99.90;;;;;;4878126;29;20222;-66
2022/01/03 15:02:37;;;;;;;16.35;5.07;;;9.40;99.90;;;;;;4894483;29;20306;-66
2022/01/03 15:05:06;;;;;;;11.73;4.65;;;9.40;99.90;;;;;;4895796;29;20279;-66
2022/01/03 15:07:36;;;;;;;10.00;4.15;;;9.40;99.90;;;;;;4894974;29;20717;-66
2022/01/03 15:10:07;;;;;;;9.98;3.67;;;9.40;99.90;;;;;;4892332;29;20209;-66
2022/01/03 15:12:34;;;;;;;15.18;4.45;;;9.40;99.90;;;;;;4895093;29;20992;-66
2022/01/03 15:15:01;;;;;;;8.35;5.18;;;9.40;99.90;;;;;;4895277;29;20200;-67
2022/01/03 15:17:27;;;;;;;8.18;4.55;;;9.40;99.90;;;;;;4894071;29;20287;-66
2022/01/03 15:19:54;;;;;;;6.78;3.75;;;9.40;99.90;;;;;;4893942;29;20215;-66
2022/01/03 15:22:21;;;;;;;10.63;3.85;;;9.40;99.90;;;;;;4880639;29;20295;-67
2022/01/03 15:24:48;;;;;;;9.00;3.80;;;9.40;99.90;;;;;;4881459;29;20223;-67
2022/01/03 15:27:16;;;;;;;3.83;2.75;;;9.30;99.90;;;;;;4895563;29;20199;-67
2022/01/03 15:29:44;;;;;;;20.02;4.47;;;9.40;99.90;;;;;;4892313;29;20210;-68
2022/01/03 15:32:10;;;;;;;7.78;3.17;;;9.30;99.90;;;;;;4883728;29;20388;-68
2022/01/03 15:34:38;;;;;;;11.93;3.58;;;9.30;99.90;;;;;;4895559;29;20212;-69
2022/01/03 15:37:05;;;;;;;10.15;4.22;;;9.20;99.90;;;;;;4894678;29;20207;-68
2022/01/03 15:39:32;;;;;;;5.63;3.58;;;9.20;99.90;;;;;;4887459;29;20226;-68
2022/01/03 15:41:58;;;;;;;11.02;3.97;;;9.20;99.90;;;;;;4894553;29;20749;-68
2022/01/03 15:44:28;;;;;;;8.50;3.00;;;9.10;99.90;;;;;;4895386;29;20231;-69
2022/01/03 15:46:55;;;;;;;12.52;3.10;;;9.10;99.90;;;;;;4894709;29;20648;-68
2022/01/03 15:49:22;;;;;;;13.10;4.05;;;9.10;99.90;;;;;;4894912;29;20211;-68
2022/01/03 15:51:49;;;;;;;6.93;2.88;;;9.10;99.90;;;;;;4893508;29;20244;-67
2022/01/03 15:54:17;;;;;;;7.15;2.80;;;9.00;99.90;;;;;;4889929;29;20263;-68
2022/01/03 15:56:45;;;;;;;9.98;3.00;;;9.00;99.90;;;;;;4895014;29;20298;-68
2022/01/03 15:59:14;;;;;;;12.18;4.07;;;9.00;99.90;;;;;;4890663;29;20211;-68
2022/01/03 16:01:43;;;;;;;11.05;3.97;;;9.00;99.90;;;;;;4894711;29;20310;-69
2022/01/03 16:04:11;;;;;;;12.15;3.72;;;9.00;99.90;;;;;;4887156;29;20231;-67
2022/01/03 16:06:38;;;;;;;8.25;3.53;;;9.00;99.90;;;;;;4886178;29;20219;-68
2022/01/03 16:09:04;;;;;;;8.15;3.05;;;9.00;99.90;;;;;;4890257;29;20668;-68
2022/01/03 16:11:31;;;;;;;8.98;3.58;;;9.00;99.90;;;;;;4891159;29;20306;-67
2022/01/03 16:13:58;;;;;;;12.68;3.75;;;8.90;99.90;;;;;;4894636;29;20212;-69
2022/01/03 16:16:26;;;;;;;9.77;3.38;;;8.90;99.90;;;;;;4893910;29;20212;-68
2022/01/03 16:18:54;;;;;;;11.18;4.05;;;8.90;99.90;;;;;;4894677;29;20286;-67
2022/01/03 16:21:20;;;;;;;7.00;3.08;;;8.90;99.90;;;;;;4882290;29;20282;-67
2022/01/03 16:23:47;;;;;;;8.95;3.05;;;8.80;99.90;;;;;;4895434;29;20219;-66
2022/01/03 16:26:15;;;;;;;14.68;3.63;;;8.80;99.90;;;;;;4894553;29;20235;-66
2022/01/03 16:28:41;;;;;;;8.80;3.97;;;8.80;99.90;;;;;;4893754;29;20294;-67
2022/01/03 16:31:08;;;;;;;6.07;3.20;;;8.80;99.90;;;;;;4890554;29;20239;-68
2022/01/03 16:33:35;;;;;;;9.98;3.85;;;8.70;99.90;;;;;;4894514;29;20333;-68
2022/01/03 16:36:03;;;;;;;8.90;3.75;;;8.70;99.90;;;;;;4892840;29;20267;-68
2022/01/03 16:38:30;;;;;;;15.68;4.00;;;8.70;99.90;;;;;;4883078;29;20239;-68
2022/01/03 16:40:57;;;;;;;9.80;4.47;;;8.70;99.90;;;;;;4895903;29;20230;-68
2022/01/03 16:43:24;;;;;;;5.45;3.40;;;8.70;99.90;;;;;;4895067;29;20699;-68
2022/01/03 16:45:51;;;;;;;5.07;3.90;;;8.70;99.90;;;;;;4895266;29;20306;-68
2022/01/03 16:48:17;;;;;;;8.93;4.07;;;8.70;99.90;;;;;;4890415;29;20216;-68
2022/01/03 16:50:44;;;;;;;4.93;3.75;;;8.70;99.90;;;;;;4894208;29;20299;-68
2022/01/03 16:53:12;;;;;;;8.85;3.97;;;8.70;99.90;;;;;;4892508;29;20211;-68
2022/01/03 16:55:39;;;;;;;10.90;4.30;;;8.60;99.90;;;;;;4888582;29;20207;-67
2022/01/03 16:58:06;;;;;;;8.13;3.83;;;8.60;99.90;;;;;;4892267;29;20362;-67
2022/01/03 17:00:34;;;;;;;11.48;3.95;;;8.60;99.90;;;;;;4890301;29;20223;-66
2022/01/03 17:03:01;;;;;;;10.13;4.70;;;8.60;99.90;;;;;;4891382;29;20204;-67
2022/01/03 17:05:29;;;;;;;8.60;4.00;;;8.60;99.90;;;;;;4898820;29;20234;-68
2022/01/03 17:07:56;;;;;;;12.43;4.45;;;8.50;99.90;;;;;;4896208;29;20725;-68
2022/01/03 17:10:26;;;;;;;5.55;3.72;;;8.50;99.90;;;;;;4896700;29;20223;-68
2022/01/03 17:12:53;;;;;;;8.63;3.40;;;8.50;99.90;;;;;;4882508;29;20215;-68
2022/01/03 17:15:19;;;;;;;7.75;3.60;;;8.60;99.90;;;;;;4896133;29;20278;-68
2022/01/03 17:17:46;;;;;;;9.65;4.07;;;8.50;99.90;;;;;;4897385;29;20216;-68
2022/01/03 17:20:13;;;;;;;9.93;3.92;;;8.50;99.90;;;;;;4894771;29;20208;-68
2022/01/03 17:22:39;;;;;;;9.13;3.72;;;8.50;99.90;;;;;;4894225;29;20275;-68
2022/01/03 17:25:07;;;;;;;17.08;5.38;;;8.50;99.90;;;;;;4896540;29;20231;-69
2022/01/03 17:27:35;;;;;;;6.50;3.80;;;8.50;99.90;;;;;;4894556;29;20211;-68
2022/01/03 17:30:02;;;;;;;6.68;2.92;;;8.60;99.90;;;;;;4895453;29;20568;-68
2022/01/03 17:32:29;;;;;;;4.97;2.17;;;8.60;99.90;;;;;;4879235;29;20262;-69
2022/01/03 17:34:55;;;;;;;3.65;2.30;;;8.60;99.90;;;;;;4881764;29;20203;-68
2022/01/03 17:37:22;;;;;;;1.77;1.65;;;8.60;99.90;;;;;;4885398;29;20208;-68
2022/01/03 17:39:49;;;;;;;8.00;3.30;;;8.50;99.90;;;;;;4889035;29;20267;-67
2022/01/03 17:42:16;;;;;;;5.75;1.98;;;8.40;99.90;;;;;;4896762;29;20229;-65
2022/01/03 17:44:44;;;;;;;2.67;2.47;;;8.20;99.90;;;;;;4896496;29;20227;-66
2022/01/03 17:47:10;;;;;;;3.17;1.63;;;8.10;99.90;;;;;;4888673;29;20236;-68
2022/01/03 17:49:37;;;;;;;8.55;2.78;;;8.00;99.90;;;;;;4879655;29;20200;-67
2022/01/03 17:52:04;;;;;;;5.13;2.47;;;8.00;99.90;;;;;;4896246;29;20625;-67
2022/01/03 17:54:31;;;;;;;3.95;2.72;;;8.00;99.90;;;;;;4897100;29;20211;-67
2022/01/03 17:56:57;;;;;;;4.97;2.63;;;8.00;99.90;;;;;;4885483;29;20223;-66
2022/01/03 17:59:24;;;;;;;6.18;3.53;;;8.00;99.90;;;;;;4889386;29;20211;-66
2022/01/03 18:01:52;;;;;;;5.85;4.75;;;8.00;99.90;;;;;;4893616;29;20287;-67
2022/01/03 18:04:19;;;;;;;9.98;4.80;;;8.00;99.90;;;;;;4896951;29;20672;-67
2022/01/03 18:06:49;;;;;;;9.23;6.15;;;8.00;99.90;;;;;;4891394;29;20890;-68
2022/01/03 18:09:16;;;;;;;11.57;6.18;;;7.90;99.90;;;;;;4893926;29;20200;-66
2022/01/03 18:11:43;;;;;;;9.93;5.43;;;7.90;99.90;;;;;;4887292;29;20232;-67
2022/01/03 18:14:09;;;;;;;9.95;5.50;;;7.90;99.90;;;;;;4885752;29;20263;-66
2022/01/03 18:16:36;;;;;;;15.00;5.55;;;8.00;99.90;;;;;;4887813;29;20223;-67
2022/01/03 18:19:04;;;;;;;11.75;5.68;;;7.90;99.90;;;;;;4893256;29;20532;-66